Time;durP1;ratioP1;P1;durP2;ratioP2;P2;SDS_P1;SDS_P2;PMS_P1;PMS_P2;Temp;Humidity;BMP_temperature;BMP_pressure;BME280_temperature;BME280_humidity;BME280_pressure;Samples;Min_cycle;Max_cycle;Signal;HPM_P1;HPM_P2
2023/07/27 00:02:25;;;;;;;11.75;5.90;;;;;;;;;;5044146;28;20076;-88
2023/07/27 00:04:52;;;;;;;15.55;6.38;;;;;;;;;;5064009;28;20142;-88
2023/07/27 00:07:25;;;;;;;10.20;5.88;;;;;;;;;;5047108;28;20103;-89
2023/07/27 00:09:52;;;;;;;14.70;6.78;;;;;;;;;;5045781;28;20357;-89
2023/07/27 00:12:21;;;;;;;10.68;6.55;;;;;;;;;;5063127;28;20079;-89
2023/07/27 00:14:49;;;;;;;14.15;5.68;;;;;;;;;;5048951;28;20041;-89
2023/07/27 00:17:16;;;;;;;10.90;5.88;;;;;;;;;;5064529;28;20029;-88
2023/07/27 00:19:46;;;;;;;10.88;5.72;;;;;;;;;;5069306;28;20052;-88
2023/07/27 00:22:12;;;;;;;12.77;6.93;;;;;;;;;;5051918;28;20051;-88
2023/07/27 00:24:39;;;;;;;19.63;7.20;;;;;;;;;;5045773;28;20049;-88
2023/07/27 00:27:06;;;;;;;17.35;6.00;;;;;;;;;;5063089;28;20079;-88
2023/07/27 00:29:33;;;;;;;15.38;5.70;;;;;;;;;;5056418;28;20057;-89
2023/07/27 00:32:00;;;;;;;14.85;6.72;;;;;;;;;;5062460;28;20196;-88
2023/07/27 00:34:27;;;;;;;14.60;6.00;;;;;;;;;;5067242;28;20037;-88
2023/07/27 00:37:07;;;;;;;11.07;6.15;;;;;;;;;;5071226;28;20040;-89
2023/07/27 00:39:36;;;;;;;10.35;6.32;;;;;;;;;;5077674;28;20052;-88
2023/07/27 00:42:17;;;;;;;13.57;6.30;;;;;;;;;;5076455;28;20063;-88
2023/07/27 00:44:57;;;;;;;15.02;5.68;;;;;;;;;;5076199;28;20025;-87
2023/07/27 00:47:29;;;;;;;11.90;6.28;;;;;;;;;;5077277;28;20040;-88
2023/07/27 00:50:00;;;;;;;11.55;6.28;;;;;;;;;;5077874;28;20092;-88
2023/07/27 00:52:40;;;;;;;11.60;6.22;;;;;;;;;;5076808;28;20109;-89
2023/07/27 00:55:07;;;;;;;11.52;6.18;;;;;;;;;;5073658;28;20041;-88
2023/07/27 00:57:36;;;;;;;11.80;6.85;;;;;;;;;;5073168;28;20041;-89
2023/07/27 01:00:03;;;;;;;14.88;7.10;;;;;;;;;;5067319;28;20144;-89
2023/07/27 01:02:30;;;;;;;12.85;6.60;;;;;;;;;;5061352;28;20049;-89
2023/07/27 01:05:00;;;;;;;12.68;6.68;;;;;;;;;;5064128;28;20049;-89
2023/07/27 01:07:30;;;;;;;15.15;7.18;;;;;;;;;;5070011;28;20063;-89
2023/07/27 01:09:59;;;;;;;14.27;6.30;;;;;;;;;;5066457;28;20071;-88
2023/07/27 01:12:48;;;;;;;14.57;6.88;;;;;;;;;;5064515;28;20140;-88
2023/07/27 01:15:17;;;;;;;18.13;7.85;;;;;;;;;;5066265;28;20076;-88
2023/07/27 01:17:49;;;;;;;15.02;7.75;;;;;;;;;;5065021;28;20298;-89
2023/07/27 01:20:22;;;;;;;15.07;7.43;;;;;;;;;;5064780;28;20148;-88
2023/07/27 01:22:49;;;;;;;15.43;7.93;;;;;;;;;;5064765;28;20049;-89
2023/07/27 01:25:31;;;;;;;15.85;8.63;;;;;;;;;;5065562;28;20131;-88
2023/07/27 01:28:13;;;;;;;16.48;8.35;;;;;;;;;;5065713;28;20084;-88
2023/07/27 01:30:49;;;;;;;13.73;7.90;;;;;;;;;;5049836;28;20056;-88
2023/07/27 01:33:21;;;;;;;14.18;7.95;;;;;;;;;;5049141;28;20079;-89
2023/07/27 01:36:05;;;;;;;22.38;8.60;;;;;;;;;;5052398;28;20076;-88
2023/07/27 01:38:36;;;;;;;17.85;8.23;;;;;;;;;;5049058;28;20053;-88
2023/07/27 01:41:05;;;;;;;15.30;8.38;;;;;;;;;;5065548;28;20075;-88
2023/07/27 01:43:33;;;;;;;17.83;8.43;;;;;;;;;;5049011;28;20083;-88
2023/07/27 01:46:04;;;;;;;16.63;9.07;;;;;;;;;;5047976;28;20079;-88
2023/07/27 01:48:31;;;;;;;12.20;8.05;;;;;;;;;;5049056;28;20048;-88
2023/07/27 01:50:59;;;;;;;13.90;8.23;;;;;;;;;;5048768;28;20080;-88
2023/07/27 01:53:27;;;;;;;18.70;8.57;;;;;;;;;;5048714;28;20041;-88
2023/07/27 01:55:54;;;;;;;16.60;8.02;;;;;;;;;;5046104;28;20052;-88
2023/07/27 01:58:24;;;;;;;11.57;6.88;;;;;;;;;;5068795;28;20084;-88
2023/07/27 02:00:55;;;;;;;12.23;7.00;;;;;;;;;;5055213;28;20045;-88
2023/07/27 02:03:25;;;;;;;14.30;7.63;;;;;;;;;;5049231;28;20049;-88
2023/07/27 02:05:52;;;;;;;13.00;7.70;;;;;;;;;;5047346;28;20053;-88
2023/07/27 02:08:19;;;;;;;16.33;7.78;;;;;;;;;;5065897;28;20053;-88
2023/07/27 02:10:55;;;;;;;16.80;8.73;;;;;;;;;;5065658;28;20280;-87
2023/07/27 02:13:24;;;;;;;15.48;7.82;;;;;;;;;;5068922;28;20036;-88
2023/07/27 02:16:06;;;;;;;16.13;7.38;;;;;;;;;;5058225;28;20064;-88
2023/07/27 02:18:34;;;;;;;15.50;7.88;;;;;;;;;;5048495;28;20390;-88
2023/07/27 02:21:02;;;;;;;15.57;7.05;;;;;;;;;;5064449;28;20049;-88
2023/07/27 02:23:32;;;;;;;14.13;7.65;;;;;;;;;;5064598;28;20063;-88
2023/07/27 02:26:01;;;;;;;18.50;8.68;;;;;;;;;;5051542;28;20119;-88
2023/07/27 02:28:28;;;;;;;21.95;7.57;;;;;;;;;;5050259;28;20072;-88
2023/07/27 02:30:56;;;;;;;14.82;6.93;;;;;;;;;;5064611;28;20165;-87
2023/07/27 02:33:23;;;;;;;12.75;6.97;;;;;;;;;;5064168;28;20405;-88
2023/07/27 02:35:50;;;;;;;15.50;7.95;;;;;;;;;;5065191;28;20069;-89
2023/07/27 02:38:16;;;;;;;17.50;7.43;;;;;;;;;;5066245;28;20115;-87
2023/07/27 02:40:43;;;;;;;17.83;8.13;;;;;;;;;;5064651;28;20044;-88
2023/07/27 02:43:10;;;;;;;17.27;7.43;;;;;;;;;;5064320;28;20049;-88
2023/07/27 02:45:37;;;;;;;12.57;7.65;;;;;;;;;;5063255;28;20049;-88
2023/07/27 02:48:04;;;;;;;13.85;7.15;;;;;;;;;;5063665;28;20036;-88
2023/07/27 02:50:31;;;;;;;17.58;8.93;;;;;;;;;;5062442;28;20051;-87
2023/07/27 02:52:57;;;;;;;14.93;7.95;;;;;;;;;;5061106;28;20049;-88
2023/07/27 02:55:24;;;;;;;13.70;7.40;;;;;;;;;;5064947;28;20057;-88
2023/07/27 02:57:51;;;;;;;11.38;7.05;;;;;;;;;;5063095;28;20057;-89
2023/07/27 03:00:18;;;;;;;14.05;6.82;;;;;;;;;;5064449;28;20060;-88
2023/07/27 03:02:45;;;;;;;14.73;8.43;;;;;;;;;;5063452;28;20052;-89
2023/07/27 03:05:12;;;;;;;16.23;8.02;;;;;;;;;;5063771;28;20056;-89
2023/07/27 03:07:39;;;;;;;12.23;7.15;;;;;;;;;;5063910;28;20294;-89
2023/07/27 03:10:05;;;;;;;17.02;8.98;;;;;;;;;;5063703;28;20060;-89
2023/07/27 03:12:36;;;;;;;16.52;7.90;;;;;;;;;;5063891;28;20055;-89
2023/07/27 03:15:03;;;;;;;17.05;8.38;;;;;;;;;;5064627;28;20076;-89
2023/07/27 03:17:30;;;;;;;14.63;7.90;;;;;;;;;;5063615;28;20053;-88
2023/07/27 03:19:58;;;;;;;19.25;8.60;;;;;;;;;;5064141;28;20064;-88
2023/07/27 03:22:25;;;;;;;14.70;8.40;;;;;;;;;;5065674;28;20083;-89
2023/07/27 03:25:08;;;;;;;17.92;9.18;;;;;;;;;;5068963;28;20041;-88
2023/07/27 03:27:35;;;;;;;17.08;9.13;;;;;;;;;;5071226;28;20049;-88
2023/07/27 03:30:02;;;;;;;16.95;8.38;;;;;;;;;;5067917;28;20052;-88
2023/07/27 03:32:29;;;;;;;16.88;9.48;;;;;;;;;;5070228;28;20095;-88
2023/07/27 03:34:56;;;;;;;18.13;9.55;;;;;;;;;;5070558;28;20392;-88
2023/07/27 03:37:57;;;;;;;13.52;8.98;;;;;;;;;;5074686;28;20041;-90
2023/07/27 03:40:40;;;;;;;19.45;9.73;;;;;;;;;;5077398;28;20043;-89
2023/07/27 03:43:21;;;;;;;18.50;9.90;;;;;;;;;;5077051;28;20021;-88
2023/07/27 03:46:03;;;;;;;20.83;10.95;;;;;;;;;;5078355;28;20032;-89
2023/07/27 03:48:46;;;;;;;17.05;9.80;;;;;;;;;;5077676;28;20033;-90
2023/07/27 03:51:26;;;;;;;19.17;8.88;;;;;;;;;;5076826;28;20055;-87
2023/07/27 03:54:07;;;;;;;22.42;11.07;;;;;;;;;;5077134;28;20055;-88
2023/07/27 03:56:48;;;;;;;17.77;9.98;;;;;;;;;;5076636;28;20088;-89
2023/07/27 03:59:29;;;;;;;15.23;10.13;;;;;;;;;;5078091;28;20025;-88
2023/07/27 04:02:25;;;;;;;19.08;10.45;;;;;;;;;;5076392;28;20033;-89
2023/07/27 04:05:05;;;;;;;18.15;10.05;;;;;;;;;;5077980;28;20056;-88
2023/07/27 04:07:51;;;;;;;17.88;10.70;;;;;;;;;;5075391;28;20092;-89
2023/07/27 04:10:32;;;;;;;19.13;11.27;;;;;;;;;;5051824;28;20052;-88
2023/07/27 04:13:13;;;;;;;19.40;10.25;;;;;;;;;;5077695;28;20037;-89
2023/07/27 04:15:55;;;;;;;19.08;10.55;;;;;;;;;;5077316;28;20036;-88
2023/07/27 04:18:36;;;;;;;18.58;10.13;;;;;;;;;;5064748;28;20089;-88
2023/07/27 04:21:18;;;;;;;19.42;10.45;;;;;;;;;;5077224;28;20092;-89
2023/07/27 04:27:21;;;;;;;15.93;9.93;;;;;;;;;;5077730;28;20031;-88
2023/07/27 04:30:07;;;;;;;23.20;10.25;;;;;;;;;;5075413;28;20051;-88
2023/07/27 04:32:48;;;;;;;18.77;10.50;;;;;;;;;;5077664;28;20033;-89
2023/07/27 04:35:29;;;;;;;20.38;10.40;;;;;;;;;;5075736;28;20097;-88
2023/07/27 04:38:32;;;;;;;20.35;10.35;;;;;;;;;;5077721;28;20028;-88
2023/07/27 04:41:15;;;;;;;21.67;9.77;;;;;;;;;;5075279;28;20032;-89
2023/07/27 04:43:57;;;;;;;22.13;11.15;;;;;;;;;;5075831;28;20039;-89
2023/07/27 04:46:39;;;;;;;16.63;9.95;;;;;;;;;;5075935;28;20028;-90
2023/07/27 04:49:21;;;;;;;17.85;9.80;;;;;;;;;;5075873;28;20021;-89
2023/07/27 04:52:12;;;;;;;22.13;10.70;;;;;;;;;;5076265;28;20053;-89
2023/07/27 04:55:21;;;;;;;18.95;10.50;;;;;;;;;;5075964;28;20036;-88
2023/07/27 04:58:02;;;;;;;17.95;10.98;;;;;;;;;;5498504;22;20125;-88
2023/07/27 05:00:43;;;;;;;21.63;9.95;;;;;;;;;;5101487;22;20057;-89
2023/07/27 05:03:24;;;;;;;13.73;9.32;;;;;;;;;;5669399;22;20078;-87
2023/07/27 05:06:06;;;;;;;16.35;10.02;;;;;;;;;;5106163;22;20048;-89
2023/07/27 05:08:57;;;;;;;18.75;9.75;;;;;;;;;;5077244;28;20055;-89
2023/07/27 05:11:39;;;;;;;18.58;9.50;;;;;;;;;;5076582;28;20082;-88
2023/07/27 05:14:46;;;;;;;18.48;9.52;;;;;;;;;;5076659;28;20040;-88
2023/07/27 05:17:45;;;;;;;18.50;9.30;;;;;;;;;;5075005;28;20066;-88
2023/07/27 05:23:02;;;;;;;17.63;8.88;;;;;;;;;;5156068;22;20160;-86
2023/07/27 05:25:59;;;;;;;14.23;8.23;;;;;;;;;;5063164;28;20140;-89
2023/07/27 05:28:41;;;;;;;14.98;8.60;;;;;;;;;;5060870;28;20049;-89
2023/07/27 05:31:27;;;;;;;16.70;8.60;;;;;;;;;;5075887;28;20064;-87
2023/07/27 05:34:11;;;;;;;18.80;8.13;;;;;;;;;;5060755;28;20040;-90
2023/07/27 05:37:20;;;;;;;16.33;7.95;;;;;;;;;;5075020;28;20029;-90
2023/07/27 05:40:11;;;;;;;19.08;8.95;;;;;;;;;;5074423;28;20040;-89
2023/07/27 05:46:18;;;;;;;18.08;7.95;;;;;;;;;;5076369;28;20249;-89
2023/07/27 05:49:07;;;;;;;12.82;7.28;;;;;;;;;;5060498;28;20048;-88
2023/07/27 05:51:50;;;;;;;12.55;7.57;;;;;;;;;;5060806;28;20033;-90
2023/07/27 05:54:37;;;;;;;18.70;8.07;;;;;;;;;;5063600;28;20029;-89
2023/07/27 06:00:04;;;;;;;17.08;7.78;;;;;;;;;;5393959;22;20048;-89
2023/07/27 06:05:20;;;;;;;13.57;8.52;;;;;;;;;;5194031;22;20065;-90
2023/07/27 06:08:02;;;;;;;15.75;9.02;;;;;;;;;;5238350;22;20129;-89
2023/07/27 06:10:44;;;;;;;15.32;8.77;;;;;;;;;;5288986;22;20065;-89
2023/07/27 06:13:30;;;;;;;14.85;8.65;;;;;;;;;;5079390;28;20097;-90
2023/07/27 06:16:48;;;;;;;14.82;9.55;;;;;;;;;;5077181;28;20033;-88
2023/07/27 06:20:00;;;;;;;;;;;;;;;;;;5080034;28;20097;-89
2023/07/27 06:25:31;;;;;;;18.77;9.68;;;;;;;;;;5596492;22;20040;-89
2023/07/27 06:28:13;;;;;;;16.83;9.10;;;;;;;;;;5078887;28;20076;-88
2023/07/27 06:34:28;;;;;;;16.20;8.98;;;;;;;;;;5078720;28;20031;-90
2023/07/27 06:37:12;;;;;;;17.58;9.18;;;;;;;;;;5079070;28;20024;-88
2023/07/27 06:39:54;;;;;;;15.95;8.45;;;;;;;;;;5077285;28;20032;-88
2023/07/27 06:42:39;;;;;;;15.90;8.63;;;;;;;;;;5077669;28;20222;-89
2023/07/27 06:45:20;;;;;;;15.43;9.13;;;;;;;;;;5077242;28;20033;-88
2023/07/27 06:48:02;;;;;;;15.85;9.25;;;;;;;;;;5077239;28;20033;-87
2023/07/27 06:50:44;;;;;;;17.40;9.38;;;;;;;;;;5077207;28;20063;-87
2023/07/27 06:53:25;;;;;;;17.92;9.20;;;;;;;;;;5077104;28;20041;-88
2023/07/27 06:59:04;;;;;;;15.45;8.57;;;;;;;;;;5097218;22;20082;-90
2023/07/27 07:01:46;;;;;;;16.45;9.88;;;;;;;;;;5077577;28;20096;-88
2023/07/27 07:04:33;;;;;;;16.85;9.38;;;;;;;;;;5060588;28;20032;-88
2023/07/27 07:07:51;;;;;;;18.08;9.68;;;;;;;;;;5075892;28;20058;-88
2023/07/27 07:10:33;;;;;;;16.27;9.48;;;;;;;;;;5073311;28;20033;-89
2023/07/27 07:13:14;;;;;;;15.43;8.65;;;;;;;;;;5058890;28;20020;-88
2023/07/27 07:16:09;;;;;;;18.10;9.88;;;;;;;;;;5058655;28;20114;-86
2023/07/27 07:18:56;;;;;;;17.13;9.65;;;;;;;;;;5057002;28;20088;-88
2023/07/27 07:21:45;;;;;;;14.63;9.65;;;;;;;;;;5071676;28;20210;-87
2023/07/27 07:24:31;;;;;;;17.58;9.90;;;;;;;;;;5074306;28;20071;-87
2023/07/27 07:27:27;;;;;;;22.65;10.48;;;;;;;;;;5056847;28;20047;-86
2023/07/27 07:30:11;;;;;;;17.17;9.82;;;;;;;;;;5069972;28;20405;-88
2023/07/27 07:32:53;;;;;;;17.33;10.10;;;;;;;;;;5071420;28;20055;-86
2023/07/27 07:35:59;;;;;;;19.38;9.65;;;;;;;;;;5072068;28;20096;-87
2023/07/27 07:38:40;;;;;;;18.88;10.50;;;;;;;;;;5051412;28;20056;-86
2023/07/27 07:41:23;;;;;;;17.48;9.70;;;;;;;;;;5068367;28;20099;-87
2023/07/27 07:44:09;;;;;;;16.67;9.35;;;;;;;;;;5053413;28;20098;-87
2023/07/27 07:47:14;;;;;;;18.52;9.90;;;;;;;;;;5052857;28;20083;-86
2023/07/27 07:49:54;;;;;;;16.27;9.40;;;;;;;;;;5051745;28;20101;-86
2023/07/27 07:52:38;;;;;;;15.55;7.82;;;;;;;;;;5072189;28;20048;-87
2023/07/27 08:02:41;;;;;;;16.40;10.30;;;;;;;;;;5071911;28;20029;-88
2023/07/27 08:05:23;;;;;;;18.05;10.52;;;;;;;;;;5055937;28;20083;-87
2023/07/27 08:08:07;;;;;;;16.52;9.45;;;;;;;;;;5067920;28;20037;-86
2023/07/27 08:10:48;;;;;;;16.83;9.23;;;;;;;;;;5053507;28;20041;-86
2023/07/27 08:16:18;;;;;;;16.73;9.15;;;;;;;;;;5070921;28;20045;-87
2023/07/27 08:22:02;;;;;;;16.92;9.82;;;;;;;;;;5150684;22;20263;-86
2023/07/27 08:25:07;;;;;;;22.50;9.00;;;;;;;;;;5082817;22;20061;-86
2023/07/27 08:27:50;;;;;;;14.60;8.98;;;;;;;;;;5068788;28;20337;-88
2023/07/27 08:30:50;;;;;;;13.57;8.57;;;;;;;;;;5064924;22;20087;-86
2023/07/27 08:33:40;;;;;;;14.17;9.20;;;;;;;;;;5050644;23;20064;-86
2023/07/27 08:36:32;;;;;;;17.92;9.18;;;;;;;;;;5050905;28;20222;-87
2023/07/27 08:39:14;;;;;;;13.45;8.48;;;;;;;;;;5049656;28;20041;-86
2023/07/27 08:42:08;;;;;;;13.55;8.82;;;;;;;;;;5052545;28;20033;-85
2023/07/27 08:44:55;;;;;;;11.55;7.28;;;;;;;;;;5048436;28;20410;-85
2023/07/27 08:47:41;;;;;;;14.00;8.20;;;;;;;;;;5049062;28;20177;-86
2023/07/27 08:50:25;;;;;;;17.77;6.90;;;;;;;;;;5065413;28;20078;-86
2023/07/27 08:53:16;;;;;;;14.88;7.43;;;;;;;;;;5061260;28;20040;-87
2023/07/27 08:55:58;;;;;;;16.33;6.65;;;;;;;;;;5047504;28;20112;-85
2023/07/27 08:58:43;;;;;;;11.85;7.13;;;;;;;;;;5050774;28;20071;-86
2023/07/27 09:01:26;;;;;;;18.27;8.05;;;;;;;;;;5067253;28;20236;-87
2023/07/27 09:04:09;;;;;;;10.40;6.88;;;;;;;;;;5048748;28;20064;-87
2023/07/27 09:06:50;;;;;;;14.52;6.32;;;;;;;;;;5047280;28;20041;-86
2023/07/27 09:09:31;;;;;;;14.75;7.28;;;;;;;;;;5048136;28;20262;-86
2023/07/27 09:12:28;;;;;;;11.85;6.63;;;;;;;;;;5060113;28;20158;-86
2023/07/27 09:15:16;;;;;;;11.80;8.07;;;;;;;;;;5049817;28;20033;-88
2023/07/27 09:18:03;;;;;;;11.50;6.97;;;;;;;;;;5061988;28;20227;-86
2023/07/27 09:20:46;;;;;;;15.20;6.68;;;;;;;;;;5039859;28;20051;-85
2023/07/27 09:23:30;;;;;;;13.15;7.03;;;;;;;;;;5048344;28;20040;-86
2023/07/27 09:26:19;;;;;;;13.43;6.97;;;;;;;;;;5066393;28;20112;-86
2023/07/27 09:29:19;;;;;;;12.23;7.35;;;;;;;;;;5069764;28;20104;-85
2023/07/27 09:32:17;;;;;;;11.27;6.30;;;;;;;;;;5052942;28;20035;-86
2023/07/27 09:35:03;;;;;;;12.73;5.97;;;;;;;;;;5064182;28;20113;-85
2023/07/27 09:37:57;;;;;;;13.98;6.45;;;;;;;;;;5072577;28;20060;-88
2023/07/27 09:40:52;;;;;;;10.20;5.35;;;;;;;;;;5063823;28;20247;-86
2023/07/27 09:43:38;;;;;;;14.23;6.22;;;;;;;;;;5068874;28;20137;-85
2023/07/27 09:46:25;;;;;;;10.68;6.28;;;;;;;;;;5065198;28;20067;-86
2023/07/27 09:49:06;;;;;;;10.82;6.65;;;;;;;;;;5064905;28;20045;-87
2023/07/27 09:51:56;;;;;;;12.05;6.53;;;;;;;;;;5066984;28;20033;-86
2023/07/27 09:54:38;;;;;;;14.70;6.60;;;;;;;;;;5066003;28;20047;-85
2023/07/27 09:57:24;;;;;;;11.13;6.25;;;;;;;;;;5068617;28;20464;-85
2023/07/27 10:00:06;;;;;;;10.93;6.20;;;;;;;;;;5067900;28;20108;-85
2023/07/27 10:02:49;;;;;;;10.98;6.68;;;;;;;;;;5069245;28;20068;-86
2023/07/27 10:05:38;;;;;;;11.90;6.35;;;;;;;;;;5070937;28;20029;-86
2023/07/27 10:08:53;;;;;;;12.57;5.97;;;;;;;;;;5068182;28;20033;-88
2023/07/27 10:15:43;;;;;;;13.30;6.20;;;;;;;;;;5067089;28;20081;-85
2023/07/27 10:21:51;;;;;;;11.38;5.97;;;;;;;;;;5067560;28;20037;-86
2023/07/27 10:25:09;;;;;;;10.10;5.88;;;;;;;;;;5068651;28;20032;-86
2023/07/27 10:27:58;;;;;;;9.10;5.13;;;;;;;;;;5066550;28;20053;-86
2023/07/27 10:31:20;;;;;;;8.07;5.20;;;;;;;;;;5067187;28;20040;-86
2023/07/27 10:34:13;;;;;;;8.13;5.57;;;;;;;;;;5048958;28;20340;-85
2023/07/27 10:37:22;;;;;;;8.02;5.13;;;;;;;;;;5050250;28;20073;-87
2023/07/27 10:40:32;;;;;;;12.38;6.05;;;;;;;;;;5063012;28;20047;-87
2023/07/27 10:43:34;;;;;;;9.32;5.75;;;;;;;;;;5049812;28;20064;-84
2023/07/27 10:46:46;;;;;;;10.50;5.20;;;;;;;;;;5053438;28;20044;-90
2023/07/27 10:49:37;;;;;;;10.20;5.20;;;;;;;;;;5066068;28;20289;-86
2023/07/27 10:52:19;;;;;;;7.25;5.50;;;;;;;;;;5050325;28;20076;-85
2023/07/27 10:55:15;;;;;;;11.50;5.57;;;;;;;;;;5052356;28;20041;-86
2023/07/27 10:58:14;;;;;;;10.00;5.15;;;;;;;;;;5052699;28;20063;-85
2023/07/27 11:00:57;;;;;;;7.85;3.88;;;;;;;;;;5050374;28;20104;-87
2023/07/27 11:04:09;;;;;;;7.25;4.13;;;;;;;;;;5069027;28;20090;-87
2023/07/27 11:06:53;;;;;;;7.55;4.53;;;;;;;;;;5072474;28;20064;-88
2023/07/27 11:09:36;;;;;;;7.55;4.68;;;;;;;;;;5070257;28;20049;-86
2023/07/27 11:12:45;;;;;;;7.00;4.15;;;;;;;;;;5072917;28;20226;-86
2023/07/27 11:15:29;;;;;;;8.80;3.80;;;;;;;;;;5346839;22;20073;-87
2023/07/27 11:18:42;;;;;;;7.10;2.83;;;;;;;;;;5073733;28;20033;-86
2023/07/27 11:41:18;;;;;;;2.67;2.22;;;;;;;;;;5639418;22;20053;-89
2023/07/27 11:44:08;;;;;;;;;;;;;;;;;;5406131;22;20052;-91
2023/07/27 11:55:38;;;;;;;2.97;2.22;;;;;;;;;;5577278;22;20096;-88
2023/07/27 11:58:20;;;;;;;3.70;2.42;;;;;;;;;;5075645;23;20076;-88
2023/07/27 12:01:23;;;;;;;5.32;2.60;;;;;;;;;;5076162;28;20100;-89
2023/07/27 12:04:30;;;;;;;4.00;3.05;;;;;;;;;;5074691;28;20037;-89
2023/07/27 12:07:36;;;;;;;3.00;2.50;;;;;;;;;;5351796;22;20051;-89
2023/07/27 12:15:43;;;;;;;3.13;2.70;;;;;;;;;;5491570;22;20056;-90
2023/07/27 12:18:26;;;;;;;5.70;3.03;;;;;;;;;;5312839;22;20105;-87
2023/07/27 12:21:10;;;;;;;4.57;2.88;;;;;;;;;;5058224;28;20044;-88
2023/07/27 12:24:19;;;;;;;6.93;3.05;;;;;;;;;;5104781;22;20060;-88
2023/07/27 12:27:06;;;;;;;7.20;2.83;;;;;;;;;;5071312;28;20033;-88
2023/07/27 12:29:52;;;;;;;5.78;3.08;;;;;;;;;;5054856;28;20059;-89
2023/07/27 12:32:27;;;;;;;4.30;2.85;;;;;;;;;;5054874;28;20110;-88
2023/07/27 12:35:20;;;;;;;4.65;2.70;;;;;;;;;;5070680;28;20063;-88
2023/07/27 12:38:02;;;;;;;4.40;2.65;;;;;;;;;;5149814;22;20053;-87
2023/07/27 12:40:43;;;;;;;3.17;2.38;;;;;;;;;;5047625;28;20077;-87
2023/07/27 12:43:26;;;;;;;4.70;2.67;;;;;;;;;;5046954;28;20319;-89
2023/07/27 12:46:13;;;;;;;4.10;2.88;;;;;;;;;;5048704;28;20036;-88
2023/07/27 12:49:03;;;;;;;2.80;2.58;;;;;;;;;;5048592;28;20092;-88
2023/07/27 12:51:51;;;;;;;4.13;2.58;;;;;;;;;;5045362;28;20037;-88
2023/07/27 12:54:32;;;;;;;4.57;3.05;;;;;;;;;;5046488;28;20100;-87
2023/07/27 12:57:34;;;;;;;3.30;2.95;;;;;;;;;;5046103;28;20222;-88
2023/07/27 13:00:16;;;;;;;3.60;2.95;;;;;;;;;;5039534;28;20350;-86
2023/07/27 13:03:06;;;;;;;5.10;3.65;;;;;;;;;;5045487;28;20205;-88
2023/07/27 13:05:53;;;;;;;6.68;4.80;;;;;;;;;;5050906;28;20041;-88
2023/07/27 13:08:26;;;;;;;18.77;9.48;;;;;;;;;;5050767;28;20045;-87
2023/07/27 13:11:19;;;;;;;16.50;7.38;;;;;;;;;;5049589;28;20245;-87
2023/07/27 13:14:02;;;;;;;13.82;6.15;;;;;;;;;;5053242;28;20079;-88
2023/07/27 13:16:39;;;;;;;14.25;5.75;;;;;;;;;;5050345;28;20053;-86
2023/07/27 13:19:17;;;;;;;8.07;3.67;;;;;;;;;;5052002;28;20068;-87
2023/07/27 13:21:58;;;;;;;2.28;1.90;;;;;;;;;;5051606;28;20046;-88
2023/07/27 13:24:39;;;;;;;6.72;3.92;;;;;;;;;;5049733;28;20048;-87
2023/07/27 13:27:22;;;;;;;4.45;3.20;;;;;;;;;;5057401;28;20061;-88
2023/07/27 13:30:07;;;;;;;3.92;2.55;;;;;;;;;;5059586;28;20040;-88
2023/07/27 13:35:49;;;;;;;2.97;2.67;;;;;;;;;;5200259;22;20036;-88
2023/07/27 13:38:58;;;;;;;6.03;2.95;;;;;;;;;;5294480;22;20222;-88
2023/07/27 13:41:57;;;;;;;3.88;3.22;;;;;;;;;;5353557;22;20112;-88
2023/07/27 13:44:38;;;;;;;4.35;2.83;;;;;;;;;;5062807;28;20100;-87
2023/07/27 13:55:56;;;;;;;3.88;3.05;;;;;;;;;;5428631;22;20040;-88
2023/07/27 13:58:38;;;;;;;5.05;3.08;;;;;;;;;;5218075;22;20045;-87
2023/07/27 14:01:20;;;;;;;4.40;2.72;;;;;;;;;;5528661;22;21060;-87
2023/07/27 14:11:47;;;;;;;2.72;2.45;;;;;;;;;;5076997;28;20059;-88
2023/07/27 14:17:07;;;;;;;3.03;2.25;;;;;;;;;;5079441;22;20051;-89
2023/07/27 14:19:56;;;;;;;4.03;2.10;;;;;;;;;;5077518;28;20049;-88
2023/07/27 14:22:56;;;;;;;4.63;2.25;;;;;;;;;;5077370;28;20033;-88
2023/07/27 14:25:37;;;;;;;2.30;1.95;;;;;;;;;;5062089;28;20040;-88
2023/07/27 14:34:13;;;;;;;1.63;1.53;;;;;;;;;;5077579;28;20033;-88
2023/07/27 14:37:00;;;;;;;1.63;1.40;;;;;;;;;;5292838;22;20026;-87
2023/07/27 14:39:42;;;;;;;1.23;1.13;;;;;;;;;;5074605;28;20064;-88
2023/07/27 14:46:09;;;;;;;1.48;1.33;;;;;;;;;;5078116;28;20068;-87
2023/07/27 14:49:18;;;;;;;2.17;1.38;;;;;;;;;;5229547;22;20064;-88
2023/07/27 14:52:08;;;;;;;2.60;1.27;;;;;;;;;;5887049;22;20043;-88
2023/07/27 14:54:49;;;;;;;2.28;1.73;;;;;;;;;;5089341;22;20064;-88
2023/07/27 14:57:29;;;;;;;2.20;1.80;;;;;;;;;;5242837;22;20067;-88
2023/07/27 15:00:14;;;;;;;2.13;1.77;;;;;;;;;;5061785;28;20104;-88
2023/07/27 15:02:58;;;;;;;1.50;1.40;;;;;;;;;;5062809;28;20025;-88
2023/07/27 15:05:41;;;;;;;2.35;1.73;;;;;;;;;;5436621;22;20049;-86
2023/07/27 15:08:25;;;;;;;1.98;1.80;;;;;;;;;;5077878;28;20045;-88
2023/07/27 15:14:48;;;;;;;2.70;1.55;;;;;;;;;;5599915;22;20064;-88
2023/07/27 15:20:11;;;;;;;2.00;1.50;;;;;;;;;;5072681;22;20057;-86
2023/07/27 15:25:41;;;;;;;2.22;1.80;;;;;;;;;;4671557;22;20025;-88
2023/07/27 15:28:31;;;;;;;1.50;1.38;;;;;;;;;;5075977;28;20029;-88
2023/07/27 15:34:34;;;;;;;4.68;2.53;;;;;;;;;;5077550;28;20063;-87
2023/07/27 15:37:15;;;;;;;4.82;2.58;;;;;;;;;;5075775;28;20021;-87
2023/07/27 15:39:57;;;;;;;5.00;3.13;;;;;;;;;;5077166;28;20111;-87
2023/07/27 15:42:41;;;;;;;2.70;1.65;;;;;;;;;;5077078;28;20159;-87
2023/07/27 15:45:22;;;;;;;2.38;1.60;;;;;;;;;;5075384;28;20032;-87
2023/07/27 15:48:06;;;;;;;1.40;1.30;;;;;;;;;;5075153;28;20036;-88
2023/07/27 15:53:26;;;;;;;2.28;1.70;;;;;;;;;;5343298;22;20052;-88
2023/07/27 15:56:06;;;;;;;1.58;1.48;;;;;;;;;;5060550;28;20068;-88
2023/07/27 15:58:50;;;;;;;1.58;1.48;;;;;;;;;;5060515;28;20044;-87
2023/07/27 16:01:32;;;;;;;2.42;1.67;;;;;;;;;;5057704;28;20055;-87
2023/07/27 16:04:38;;;;;;;1.77;1.63;;;;;;;;;;5226982;22;20056;-88
2023/07/27 16:07:21;;;;;;;1.60;1.50;;;;;;;;;;5076106;28;20056;-88
2023/07/27 16:15:38;;;;;;;2.33;1.75;;;;;;;;;;5055017;28;20029;-88
2023/07/27 16:18:23;;;;;;;1.85;1.70;;;;;;;;;;5055202;28;20052;-88
2023/07/27 16:21:34;;;;;;;2.65;1.60;;;;;;;;;;5055269;28;20037;-87
2023/07/27 16:32:19;;;;;;;1.35;1.25;;;;;;;;;;5185726;22;20112;-89
2023/07/27 16:35:08;;;;;;;1.88;1.40;;;;;;;;;;5059642;28;20056;-87
2023/07/27 16:41:08;;;;;;;2.28;1.85;;;;;;;;;;5148494;22;20071;-89
2023/07/27 16:43:49;;;;;;;2.08;1.88;;;;;;;;;;5075384;28;20029;-86
2023/07/27 16:49:52;;;;;;;2.53;2.25;;;;;;;;;;5683101;22;20996;-87
2023/07/27 16:52:33;;;;;;;3.30;2.50;;;;;;;;;;5216277;22;20060;-87
2023/07/27 16:55:17;;;;;;;2.90;2.30;;;;;;;;;;5040580;28;20048;-87
2023/07/27 17:01:48;;;;;;;2.38;2.00;;;;;;;;;;5055903;28;20109;-87
2023/07/27 17:04:29;;;;;;;3.42;2.40;;;;;;;;;;5039883;28;20053;-85
2023/07/27 17:07:12;;;;;;;4.95;2.42;;;;;;;;;;5039512;28;20107;-87
2023/07/27 17:09:53;;;;;;;21.85;11.57;;;;;;;;;;5040143;28;20028;-88
2023/07/27 17:13:03;;;;;;;37.63;15.48;;;;;;;;;;5040039;28;20165;-87
2023/07/27 17:15:51;;;;;;;3.45;3.08;;;;;;;;;;5154976;23;20037;-89
2023/07/27 17:18:31;;;;;;;;;;;;;;;;;;5055672;28;20033;-88
2023/07/27 17:21:22;;;;;;;2.83;1.85;;;;;;;;;;5056134;28;19975;-88
2023/07/27 17:24:05;;;;;;;2.45;1.90;;;;;;;;;;5269841;22;20038;-88
2023/07/27 17:26:50;;;;;;;2.42;2.03;;;;;;;;;;5281922;22;20064;-88
2023/07/27 17:29:31;;;;;;;4.22;1.98;;;;;;;;;;5213038;22;20100;-88
2023/07/27 17:32:15;;;;;;;3.05;1.83;;;;;;;;;;5087516;22;20061;-89
2023/07/27 17:34:56;;;;;;;1.75;1.65;;;;;;;;;;5073728;28;20039;-88
2023/07/27 17:37:59;;;;;;;2.10;1.58;;;;;;;;;;5184067;22;20068;-87
2023/07/27 17:40:40;;;;;;;1.38;1.00;;;;;;;;;;5054125;28;20121;-87
2023/07/27 17:43:23;;;;;;;1.48;1.10;;;;;;;;;;5055337;28;20060;-88
2023/07/27 17:46:10;;;;;;;2.55;1.20;;;;;;;;;;5053760;28;20045;-89
2023/07/27 17:48:51;;;;;;;;;;;;;;;;;;5056133;28;20109;-88
2023/07/27 17:51:33;;;;;;;1.50;1.13;;;;;;;;;;5059682;28;19909;-89
2023/07/27 17:57:19;;;;;;;2.38;1.40;;;;;;;;;;5091957;22;20108;-88
2023/07/27 18:02:38;;;;;;;2.78;1.15;;;;;;;;;;5302096;22;20059;-86
2023/07/27 18:05:20;;;;;;;1.10;0.98;;;;;;;;;;5271857;22;20044;-89
2023/07/27 18:08:09;;;;;;;2.63;1.27;;;;;;;;;;5138778;23;20037;-87
2023/07/27 18:11:02;;;;;;;1.13;1.02;;;;;;;;;;5060007;28;20029;-90
2023/07/27 18:16:20;;;;;;;0.95;0.95;;;;;;;;;;5611459;22;20045;-86
2023/07/27 18:19:09;;;;;;;1.98;1.20;;;;;;;;;;5057492;28;20074;-89
2023/07/27 18:22:19;;;;;;;5.55;0.90;;;;;;;;;;5043084;28;20029;-89
2023/07/27 18:27:38;;;;;;;2.15;0.90;;;;;;;;;;5078213;28;20044;-88
2023/07/27 18:30:20;;;;;;;1.48;0.90;;;;;;;;;;5077885;28;20090;-88
2023/07/27 18:33:01;;;;;;;1.50;1.10;;;;;;;;;;5077793;28;20029;-88
2023/07/27 18:36:33;;;;;;;1.02;0.93;;;;;;;;;;5078042;28;20059;-89
2023/07/27 18:39:14;;;;;;;2.95;1.08;;;;;;;;;;5077633;28;20028;-88
2023/07/27 18:47:25;;;;;;;2.58;1.27;;;;;;;;;;5333542;22;20041;-89
2023/07/27 18:55:34;;;;;;;2.17;1.38;;;;;;;;;;5558386;22;20036;-88
2023/07/27 18:58:16;;;;;;;1.73;1.33;;;;;;;;;;5062767;28;20104;-88
2023/07/27 19:01:17;;;;;;;1.63;1.25;;;;;;;;;;5062080;28;20044;-89
2023/07/27 19:06:33;;;;;;;1.67;1.52;;;;;;;;;;5139494;22;20068;-89